createdAt,value
2023-04-26T00:02:24.950Z,4.60
2023-04-26T00:04:56.670Z,4.88
2023-04-26T00:07:24.977Z,4.93
2023-04-26T00:09:55.120Z,5.30
2023-04-26T00:12:22.532Z,5.13
2023-04-26T00:14:49.987Z,4.63
2023-04-26T00:17:17.461Z,5.18
2023-04-26T00:19:45.224Z,4.85
2023-04-26T00:22:13.016Z,4.85
2023-04-26T00:24:40.442Z,4.55
2023-04-26T00:27:10.461Z,4.85
2023-04-26T00:29:37.824Z,4.78
2023-04-26T00:32:05.491Z,5.35
2023-04-26T00:34:37.488Z,4.68
2023-04-26T00:37:05.512Z,5.13
2023-04-26T00:39:33.335Z,5.20
2023-04-26T00:42:00.784Z,4.68
2023-04-26T00:44:28.135Z,5.25
2023-04-26T00:46:56.015Z,4.35
2023-04-26T00:49:25.486Z,5.80
2023-04-26T00:51:53.539Z,5.82
2023-04-26T00:54:21.697Z,4.95
2023-04-26T00:56:52.019Z,4.30
2023-04-26T00:59:22.535Z,7.07
2023-04-26T01:01:50.000Z,9.63
2023-04-26T01:04:18.182Z,7.95
2023-04-26T01:06:46.391Z,5.38
2023-04-26T01:09:15.479Z,5.20
2023-04-26T01:11:44.815Z,5.68
2023-04-26T01:14:12.714Z,5.70
2023-04-26T01:16:40.947Z,5.70
2023-04-26T01:19:12.970Z,4.78
2023-04-26T01:21:41.084Z,5.43
2023-04-26T01:24:12.529Z,5.35
2023-04-26T01:26:46.784Z,6.55
2023-04-26T01:29:21.196Z,5.45
2023-04-26T01:31:49.179Z,5.05
2023-04-26T01:34:16.674Z,4.90
2023-04-26T01:36:46.539Z,5.50
2023-04-26T01:39:14.246Z,5.82
2023-04-26T01:41:41.453Z,5.72
2023-04-26T01:44:08.810Z,5.75
2023-04-26T01:46:36.168Z,5.28
2023-04-26T01:49:03.921Z,5.85
2023-04-26T01:51:31.370Z,5.43
2023-04-26T01:53:59.475Z,5.13
2023-04-26T01:56:27.213Z,5.40
2023-04-26T01:58:56.590Z,6.30
2023-04-26T02:01:24.537Z,5.15
2023-04-26T02:03:52.620Z,5.28
2023-04-26T02:06:21.390Z,5.07
2023-04-26T02:08:49.531Z,5.55
2023-04-26T02:11:16.981Z,5.00
2023-04-26T02:13:44.303Z,4.95
2023-04-26T02:16:11.626Z,5.45
2023-04-26T02:18:39.359Z,5.00
2023-04-26T02:21:09.221Z,5.65
2023-04-26T02:23:36.685Z,4.78
2023-04-26T02:26:04.544Z,5.65
2023-04-26T02:28:32.186Z,6.03
2023-04-26T02:30:59.799Z,5.53
2023-04-26T02:33:27.240Z,5.35
2023-04-26T02:35:55.092Z,6.13
2023-04-26T02:38:22.467Z,5.35
2023-04-26T02:40:50.075Z,5.75
2023-04-26T02:43:18.181Z,6.22
2023-04-26T02:45:45.515Z,6.57
2023-04-26T02:48:14.700Z,6.60
2023-04-26T02:50:42.884Z,5.40
2023-04-26T02:53:11.532Z,6.10
2023-04-26T02:55:40.050Z,5.13
2023-04-26T02:58:07.859Z,4.97
2023-04-26T03:00:35.461Z,5.03
2023-04-26T03:03:03.006Z,5.00
2023-04-26T03:05:30.640Z,5.25
2023-04-26T03:07:58.374Z,5.15
2023-04-26T03:10:25.860Z,5.38
2023-04-26T03:12:53.229Z,5.13
2023-04-26T03:15:20.629Z,5.20
2023-04-26T03:17:48.131Z,4.90
2023-04-26T03:20:15.965Z,4.60
2023-04-26T03:22:43.286Z,4.72
2023-04-26T03:25:10.892Z,4.68
2023-04-26T03:27:38.209Z,5.03
2023-04-26T03:30:06.581Z,5.72
2023-04-26T03:32:36.086Z,4.80
2023-04-26T03:35:04.591Z,5.00
2023-04-26T03:37:32.317Z,5.50
2023-04-26T03:40:06.232Z,5.05
2023-04-26T03:42:33.787Z,5.38
2023-04-26T03:45:01.259Z,5.47
2023-04-26T03:47:28.659Z,5.40
2023-04-26T03:49:55.968Z,5.20
2023-04-26T03:52:23.714Z,5.22
2023-04-26T03:54:51.141Z,5.43
2023-04-26T03:57:19.573Z,4.88
2023-04-26T03:59:46.843Z,4.95
2023-04-26T04:02:14.734Z,4.50
2023-04-26T04:04:42.512Z,4.60
2023-04-26T04:07:10.026Z,5.55
2023-04-26T04:09:37.586Z,4.55
2023-04-26T04:12:05.052Z,5.88
2023-04-26T04:14:33.192Z,5.65
2023-04-26T04:17:00.874Z,5.88
2023-04-26T04:19:29.616Z,5.40
2023-04-26T04:21:56.891Z,5.78
2023-04-26T04:24:25.732Z,6.18
2023-04-26T04:26:53.383Z,5.53
2023-04-26T04:29:21.077Z,5.47
2023-04-26T04:31:48.557Z,4.82
2023-04-26T04:34:16.565Z,4.28
2023-04-26T04:36:44.822Z,4.72
2023-04-26T04:39:16.156Z,4.25
2023-04-26T04:41:48.387Z,4.13
2023-04-26T04:44:18.508Z,3.95
2023-04-26T04:46:46.104Z,4.35
2023-04-26T04:49:14.979Z,4.07
2023-04-26T04:51:42.497Z,3.72
2023-04-26T04:54:12.750Z,4.80
2023-04-26T04:56:40.235Z,3.72
2023-04-26T04:59:08.757Z,4.15
2023-04-26T05:01:38.429Z,4.20
2023-04-26T05:04:10.031Z,3.70
2023-04-26T05:06:38.563Z,3.80
2023-04-26T05:09:05.967Z,4.47
2023-04-26T05:11:33.703Z,3.65
2023-04-26T05:14:02.230Z,3.95
2023-04-26T05:16:30.073Z,3.80
2023-04-26T05:18:58.947Z,3.78
2023-04-26T05:21:26.324Z,3.75
2023-04-26T05:23:54.100Z,3.47
2023-04-26T05:26:21.852Z,4.93
2023-04-26T05:29:07.496Z,4.78
2023-04-26T05:31:52.238Z,3.92
2023-04-26T05:34:33.805Z,4.05
2023-04-26T05:37:02.043Z,3.35
2023-04-26T05:39:29.381Z,3.78
2023-04-26T05:41:57.974Z,3.22
2023-04-26T05:44:26.003Z,3.75
2023-04-26T05:46:53.427Z,3.83
2023-04-26T05:49:20.866Z,2.92
2023-04-26T05:51:48.467Z,3.97
2023-04-26T05:54:15.886Z,4.80
2023-04-26T05:56:43.310Z,4.38
2023-04-26T05:59:12.153Z,3.42
2023-04-26T06:01:40.985Z,3.25
2023-04-26T06:04:09.096Z,3.80
2023-04-26T06:06:46.992Z,4.20
2023-04-26T06:09:14.394Z,3.63
2023-04-26T06:11:41.667Z,3.92
2023-04-26T06:14:19.774Z,3.08
2023-04-26T06:16:52.538Z,4.10
2023-04-26T06:19:19.936Z,3.40
2023-04-26T06:21:48.943Z,3.83
2023-04-26T06:24:16.410Z,3.63
2023-04-26T06:26:43.819Z,3.83
2023-04-26T06:29:11.158Z,4.00
2023-04-26T06:31:38.828Z,3.75
2023-04-26T06:34:06.785Z,3.92
2023-04-26T06:36:35.366Z,5.32
2023-04-26T06:39:04.013Z,3.63
2023-04-26T06:41:31.650Z,4.28
2023-04-26T06:43:59.275Z,6.25
2023-04-26T06:46:32.163Z,2.95
2023-04-26T06:49:01.332Z,3.38
2023-04-26T06:51:29.719Z,3.00
2023-04-26T06:53:59.126Z,3.20
2023-04-26T06:56:29.473Z,3.10
2023-04-26T06:59:02.289Z,2.50
2023-04-26T07:01:33.504Z,2.25
2023-04-26T07:04:07.893Z,2.88
2023-04-26T07:06:37.146Z,2.88
2023-04-26T07:09:04.567Z,3.50
2023-04-26T07:11:32.365Z,2.97
2023-04-26T07:13:59.930Z,3.20
2023-04-26T07:16:27.639Z,2.78
2023-04-26T07:18:58.242Z,2.85
2023-04-26T07:21:28.876Z,3.00
2023-04-26T07:24:04.910Z,3.25
2023-04-26T07:26:32.537Z,3.00
2023-04-26T07:29:00.912Z,3.35
2023-04-26T07:31:28.277Z,2.83
2023-04-26T07:33:55.881Z,2.97
2023-04-26T07:36:25.044Z,3.30
2023-04-26T07:38:55.305Z,3.33
2023-04-26T07:41:22.828Z,2.95
2023-04-26T07:43:50.829Z,3.58
2023-04-26T07:46:18.564Z,3.75
2023-04-26T07:48:46.018Z,5.40
2023-04-26T07:51:14.070Z,3.10
2023-04-26T07:53:42.030Z,3.28
2023-04-26T07:56:10.083Z,3.63
2023-04-26T07:58:39.435Z,3.53
2023-04-26T08:01:07.192Z,2.90
2023-04-26T08:03:34.952Z,3.67
2023-04-26T08:06:02.887Z,3.00
2023-04-26T08:08:33.176Z,3.47
2023-04-26T08:11:00.641Z,2.65
2023-04-26T08:13:29.469Z,3.40
2023-04-26T08:15:59.904Z,4.32
2023-04-26T08:18:27.253Z,3.00
2023-04-26T08:20:57.407Z,3.65
2023-04-26T08:23:25.090Z,3.33
2023-04-26T08:25:52.405Z,3.38
2023-04-26T08:28:19.986Z,3.75
2023-04-26T08:30:47.405Z,3.35
2023-04-26T08:33:15.381Z,3.80
2023-04-26T08:35:42.723Z,3.80
2023-04-26T08:38:10.054Z,2.58
2023-04-26T08:40:37.545Z,2.80
2023-04-26T08:43:04.951Z,2.90
2023-04-26T08:45:35.010Z,3.72
2023-04-26T08:48:12.008Z,3.28
2023-04-26T08:50:40.732Z,3.60
2023-04-26T08:53:08.468Z,3.25
2023-04-26T08:55:37.638Z,3.92
2023-04-26T08:58:05.954Z,3.28
2023-04-26T09:00:33.629Z,3.40
2023-04-26T09:03:01.619Z,3.10
2023-04-26T09:05:29.090Z,4.45
2023-04-26T09:08:05.249Z,3.55
2023-04-26T09:10:33.056Z,3.05
2023-04-26T09:13:01.357Z,4.07
2023-04-26T09:15:31.249Z,3.70
2023-04-26T09:18:20.410Z,2.08
2023-04-26T09:21:06.387Z,3.97
2023-04-26T09:23:34.375Z,3.83
2023-04-26T09:26:22.631Z,3.72
2023-04-26T09:28:50.965Z,3.05
2023-04-26T09:31:38.759Z,4.10
2023-04-26T09:36:53.872Z,5.00
2023-04-26T09:39:40.209Z,3.35
2023-04-26T09:42:13.969Z,3.20
2023-04-26T09:44:41.316Z,3.00
2023-04-26T09:47:11.478Z,4.63
2023-04-26T09:49:51.656Z,4.22
2023-04-26T09:52:19.868Z,3.50
2023-04-26T09:54:49.852Z,3.80
2023-04-26T09:57:19.715Z,4.55
2023-04-26T09:59:49.284Z,4.07
2023-04-26T10:02:22.551Z,3.17
2023-04-26T10:04:54.798Z,3.88
2023-04-26T10:07:25.912Z,3.08
2023-04-26T10:09:55.437Z,3.22
2023-04-26T10:12:24.292Z,4.03
2023-04-26T10:14:51.880Z,3.03
2023-04-26T10:17:21.029Z,3.45
2023-04-26T10:19:53.530Z,3.42
2023-04-26T10:22:25.524Z,3.40
2023-04-26T10:24:54.998Z,2.97
2023-04-26T10:28:02.429Z,3.05
2023-04-26T10:30:30.290Z,3.67
2023-04-26T10:33:04.980Z,2.70
2023-04-26T10:35:33.601Z,3.35
2023-04-26T10:38:01.544Z,3.08
2023-04-26T10:41:16.762Z,3.08
2023-04-26T10:43:45.564Z,3.58
2023-04-26T10:46:51.117Z,4.35
2023-04-26T10:49:50.113Z,3.30
2023-04-26T10:52:24.749Z,3.13
2023-04-26T10:55:04.766Z,3.33
2023-04-26T10:58:39.696Z,3.72
2023-04-26T11:01:19.838Z,3.33
2023-04-26T11:07:08.845Z,2.97
2023-04-26T11:09:37.421Z,4.28
2023-04-26T11:12:10.436Z,3.17
2023-04-26T11:14:42.372Z,2.92
2023-04-26T11:17:11.645Z,2.88
2023-04-26T11:19:58.053Z,3.08
2023-04-26T11:22:25.526Z,3.25
2023-04-26T11:24:53.093Z,2.90
2023-04-26T11:27:21.032Z,2.88
2023-04-26T11:29:48.622Z,2.42
2023-04-26T11:32:16.598Z,2.63
2023-04-26T11:34:44.230Z,3.22
2023-04-26T11:37:11.989Z,3.40
2023-04-26T11:39:42.835Z,4.30
2023-04-26T11:42:11.748Z,2.80
2023-04-26T11:44:41.376Z,3.75
2023-04-26T11:47:13.269Z,2.50
2023-04-26T11:49:41.403Z,2.72
2023-04-26T11:52:14.902Z,2.80
2023-04-26T11:54:52.833Z,2.78
2023-04-26T11:57:21.021Z,3.22
2023-04-26T11:59:48.807Z,3.03
2023-04-26T12:02:16.247Z,3.08
2023-04-26T12:04:44.680Z,2.80
2023-04-26T12:07:12.465Z,2.67
2023-04-26T12:09:44.178Z,3.80
2023-04-26T12:12:14.737Z,4.32
2023-04-26T12:14:52.816Z,3.92
2023-04-26T12:17:20.446Z,3.47
2023-04-26T12:19:56.581Z,4.10
2023-04-26T12:22:28.605Z,3.25
2023-04-26T12:25:14.590Z,2.78
2023-04-26T12:27:48.904Z,3.47
2023-04-26T12:30:16.947Z,4.75
2023-04-26T12:32:52.526Z,3.00
2023-04-26T12:35:22.074Z,3.20
2023-04-26T12:38:00.644Z,3.97
2023-04-26T12:40:31.230Z,3.47
2023-04-26T12:42:59.186Z,3.33
2023-04-26T12:45:37.693Z,4.05
2023-04-26T12:48:08.833Z,2.30
2023-04-26T12:50:36.374Z,2.65
2023-04-26T12:53:03.764Z,2.92
2023-04-26T12:55:32.942Z,2.97
2023-04-26T12:58:00.709Z,2.67
2023-04-26T13:00:31.040Z,2.55
2023-04-26T13:02:58.581Z,2.25
2023-04-26T13:05:26.226Z,3.55
2023-04-26T13:07:54.466Z,3.22
2023-04-26T13:10:27.836Z,2.88
2023-04-26T13:12:55.840Z,3.13
2023-04-26T13:15:24.743Z,4.40
2023-04-26T13:17:52.495Z,3.63
2023-04-26T13:20:21.059Z,2.75
2023-04-26T13:22:48.465Z,2.90
2023-04-26T13:25:18.124Z,2.80
2023-04-26T13:27:46.440Z,2.90
2023-04-26T13:30:14.636Z,4.20
2023-04-26T13:32:42.883Z,2.67
2023-04-26T13:35:12.101Z,2.83
2023-04-26T13:37:39.710Z,3.47
2023-04-26T13:40:07.919Z,3.28
2023-04-26T13:42:40.711Z,2.80
2023-04-26T13:45:18.822Z,3.33
2023-04-26T13:47:47.158Z,3.42
2023-04-26T13:50:14.883Z,3.25
2023-04-26T13:52:44.064Z,2.88
2023-04-26T13:55:11.744Z,2.60
2023-04-26T13:57:39.699Z,3.35
2023-04-26T14:00:11.762Z,2.38
2023-04-26T14:02:39.511Z,3.25
2023-04-26T14:05:09.625Z,2.78
2023-04-26T14:07:37.325Z,3.90
2023-04-26T14:10:06.428Z,3.08
2023-04-26T14:12:38.151Z,2.85
2023-04-26T14:15:06.690Z,3.05
2023-04-26T14:17:34.532Z,3.80
2023-04-26T14:20:02.251Z,3.38
2023-04-26T14:22:30.132Z,4.05
2023-04-26T14:24:57.863Z,3.25
2023-04-26T14:27:28.435Z,3.25
2023-04-26T14:29:56.374Z,3.60
2023-04-26T14:32:24.069Z,3.22
2023-04-26T14:34:51.761Z,2.92
2023-04-26T14:37:22.548Z,2.80
2023-04-26T14:39:50.938Z,3.33
2023-04-26T14:42:21.624Z,2.92
2023-04-26T14:44:49.460Z,3.08
2023-04-26T14:47:17.003Z,4.05
2023-04-26T14:49:44.432Z,3.78
2023-04-26T14:52:12.072Z,3.75
2023-04-26T14:54:39.828Z,3.63
2023-04-26T14:57:13.343Z,3.03
2023-04-26T14:59:47.204Z,3.13
2023-04-26T15:02:15.230Z,3.08
2023-04-26T15:04:43.633Z,2.67
2023-04-26T15:07:30.901Z,3.30
2023-04-26T15:10:04.050Z,3.55
2023-04-26T15:12:31.971Z,3.35
2023-04-26T15:15:03.547Z,3.13
2023-04-26T15:17:34.729Z,3.03
2023-04-26T15:20:09.330Z,2.83
2023-04-26T15:22:38.679Z,3.17
2023-04-26T15:25:13.027Z,3.58
2023-04-26T15:27:41.250Z,3.80
2023-04-26T15:30:11.783Z,3.40
2023-04-26T15:32:40.700Z,2.88
2023-04-26T15:35:18.304Z,3.30
2023-04-26T15:37:46.334Z,3.33
2023-04-26T15:40:19.599Z,5.90
2023-04-26T15:42:49.172Z,5.18
2023-04-26T15:45:16.914Z,4.28
2023-04-26T15:47:47.669Z,3.70
2023-04-26T15:50:15.193Z,3.42
2023-04-26T15:52:47.114Z,2.92
2023-04-26T15:55:15.264Z,3.63
2023-04-26T15:57:47.015Z,3.03
2023-04-26T16:00:30.313Z,2.90
2023-04-26T16:03:00.008Z,3.65
2023-04-26T16:05:27.938Z,3.92
2023-04-26T16:08:01.338Z,3.95
2023-04-26T16:10:32.328Z,3.50
2023-04-26T16:12:59.808Z,3.83
2023-04-26T16:15:29.846Z,5.43
2023-04-26T16:18:00.331Z,3.53
2023-04-26T16:20:38.696Z,3.70
2023-04-26T16:23:07.680Z,3.35
2023-04-26T16:25:36.688Z,3.40
2023-04-26T16:28:19.752Z,3.65
2023-04-26T16:30:49.000Z,4.15
2023-04-26T16:33:22.052Z,4.57
2023-04-26T16:35:55.245Z,3.78
2023-04-26T16:38:26.333Z,3.63
2023-04-26T16:40:58.685Z,4.55
2023-04-26T16:43:30.586Z,3.75
2023-04-26T16:46:07.006Z,4.13
2023-04-26T16:48:36.042Z,3.80
2023-04-26T16:51:07.443Z,4.90
2023-04-26T16:53:37.153Z,3.42
2023-04-26T16:56:05.310Z,3.65
2023-04-26T16:58:32.954Z,3.67
2023-04-26T17:01:01.051Z,3.30
2023-04-26T17:03:29.430Z,3.58
2023-04-26T17:06:02.588Z,4.15
2023-04-26T17:08:30.543Z,3.50
2023-04-26T17:10:58.544Z,3.90
2023-04-26T17:13:29.571Z,4.85
2023-04-26T17:15:57.503Z,3.78
2023-04-26T17:18:27.797Z,4.57
2023-04-26T17:20:59.526Z,4.22
2023-04-26T17:23:27.210Z,4.10
2023-04-26T17:25:57.787Z,3.70
2023-04-26T17:28:26.260Z,4.10
2023-04-26T17:31:01.355Z,4.38
2023-04-26T17:33:31.591Z,3.67
2023-04-26T17:35:59.387Z,5.15
2023-04-26T17:38:26.904Z,3.72
2023-04-26T17:40:54.896Z,4.30
2023-04-26T17:43:22.500Z,4.38
2023-04-26T17:45:49.900Z,4.80
2023-04-26T17:48:17.880Z,5.07
2023-04-26T17:50:46.005Z,4.32
2023-04-26T17:53:14.912Z,4.35
2023-04-26T17:55:42.535Z,4.78
2023-04-26T17:58:09.930Z,4.50
2023-04-26T18:00:37.194Z,4.57
2023-04-26T18:03:05.150Z,4.40
2023-04-26T18:05:33.254Z,5.13
2023-04-26T18:08:01.862Z,4.28
2023-04-26T18:10:29.266Z,6.07
2023-04-26T18:13:00.054Z,5.40
2023-04-26T18:15:30.778Z,4.40
2023-04-26T18:18:01.347Z,5.43
2023-04-26T18:20:32.029Z,4.82
2023-04-26T18:22:59.450Z,4.70
2023-04-26T18:25:26.960Z,4.55
2023-04-26T18:27:54.756Z,4.00
2023-04-26T18:30:22.281Z,4.95
2023-04-26T18:32:52.921Z,5.38
2023-04-26T18:35:20.693Z,4.80
2023-04-26T18:37:48.194Z,4.78
2023-04-26T18:40:15.809Z,5.03
2023-04-26T18:42:45.060Z,5.28
2023-04-26T18:45:12.933Z,5.68
2023-04-26T18:47:43.195Z,4.53
2023-04-26T18:50:10.966Z,5.25
2023-04-26T18:52:39.703Z,4.50
2023-04-26T18:55:08.106Z,4.95
2023-04-26T18:57:36.044Z,5.80
2023-04-26T19:00:05.586Z,5.35
2023-04-26T19:02:38.481Z,6.00
2023-04-26T19:05:10.148Z,6.47
2023-04-26T19:07:37.714Z,4.65
2023-04-26T19:10:07.508Z,4.82
2023-04-26T19:12:34.938Z,5.10
2023-04-26T19:15:02.596Z,6.78
2023-04-26T19:17:33.237Z,5.72
2023-04-26T19:20:01.069Z,5.72
2023-04-26T19:22:28.535Z,6.78
2023-04-26T19:24:56.548Z,6.63
2023-04-26T19:27:24.108Z,5.63
2023-04-26T19:29:51.676Z,6.75
2023-04-26T19:32:19.920Z,7.95
2023-04-26T19:34:48.499Z,7.32
2023-04-26T19:37:16.235Z,7.25
2023-04-26T19:39:43.971Z,7.20
2023-04-26T19:42:11.858Z,8.05
2023-04-26T19:44:39.973Z,6.50
2023-04-26T19:47:08.653Z,7.30
2023-04-26T19:49:36.654Z,6.90
2023-04-26T19:52:04.279Z,7.82
2023-04-26T19:54:32.694Z,7.82
2023-04-26T19:57:00.149Z,7.47
2023-04-26T19:59:27.758Z,7.22
2023-04-26T20:01:55.134Z,8.05
2023-04-26T20:04:23.328Z,7.88
2023-04-26T20:06:52.105Z,7.35
2023-04-26T20:09:21.179Z,7.97
2023-04-26T20:11:49.820Z,7.45
2023-04-26T20:14:18.028Z,9.23
2023-04-26T20:16:45.818Z,8.02
2023-04-26T20:19:13.564Z,8.93
2023-04-26T20:21:41.132Z,7.43
2023-04-26T20:24:08.883Z,7.47
2023-04-26T20:26:36.234Z,8.35
2023-04-26T20:29:03.568Z,9.13
2023-04-26T20:31:33.316Z,8.07
2023-04-26T20:34:00.879Z,8.73
2023-04-26T20:36:28.673Z,8.45
2023-04-26T20:38:55.931Z,8.57
2023-04-26T20:41:23.526Z,10.15
2023-04-26T20:43:52.937Z,8.90
2023-04-26T20:46:20.609Z,9.13
2023-04-26T20:48:48.116Z,11.02
2023-04-26T20:51:15.895Z,9.63
2023-04-26T20:53:43.773Z,9.38
2023-04-26T20:56:11.344Z,10.10
2023-04-26T20:58:39.434Z,9.85
2023-04-26T21:01:07.433Z,10.40
2023-04-26T21:03:35.777Z,11.63
2023-04-26T21:06:03.424Z,10.07
2023-04-26T21:08:30.861Z,12.82
2023-04-26T21:10:59.595Z,9.95
2023-04-26T21:13:29.120Z,10.68
2023-04-26T21:15:58.959Z,9.35
2023-04-26T21:18:26.509Z,9.90
2023-04-26T21:20:53.877Z,9.85
2023-04-26T21:23:21.291Z,9.75
2023-04-26T21:25:49.202Z,10.07
2023-04-26T21:28:16.624Z,9.98
2023-04-26T21:30:44.020Z,8.90
2023-04-26T21:33:12.549Z,8.68
2023-04-26T21:35:40.057Z,8.68
2023-04-26T21:38:08.674Z,8.48
2023-04-26T21:40:36.031Z,9.35
2023-04-26T21:43:05.393Z,9.15
2023-04-26T21:45:32.960Z,10.07
2023-04-26T21:48:00.374Z,9.50
2023-04-26T21:50:28.387Z,8.85
2023-04-26T21:52:55.799Z,10.45
2023-04-26T21:55:23.160Z,9.15
2023-04-26T21:57:50.463Z,10.70
2023-04-26T22:00:18.266Z,9.32
2023-04-26T22:02:47.374Z,9.27
2023-04-26T22:05:14.720Z,9.02
2023-04-26T22:07:44.600Z,9.73
2023-04-26T22:10:12.258Z,9.93
2023-04-26T22:12:39.708Z,10.63
2023-04-26T22:15:07.772Z,9.80
2023-04-26T22:17:35.504Z,9.15
2023-04-26T22:20:03.724Z,9.60
2023-04-26T22:22:31.201Z,9.70
2023-04-26T22:24:58.584Z,10.02
2023-04-26T22:27:25.900Z,9.95
2023-04-26T22:29:53.269Z,10.80
2023-04-26T22:32:20.634Z,10.45
2023-04-26T22:34:47.958Z,10.18
2023-04-26T22:37:21.191Z,10.57
2023-04-26T22:39:49.253Z,10.30
2023-04-26T22:42:16.612Z,9.85
2023-04-26T22:44:43.961Z,10.23
2023-04-26T22:47:11.346Z,10.77
2023-04-26T22:49:39.123Z,10.48
2023-04-26T22:52:14.144Z,10.55
2023-04-26T22:54:47.925Z,9.32
2023-04-26T22:57:15.316Z,10.45
2023-04-26T22:59:42.566Z,10.38
2023-04-26T23:02:10.007Z,10.13
2023-04-26T23:04:37.489Z,10.95
2023-04-26T23:07:04.855Z,9.43
2023-04-26T23:09:32.603Z,10.07
2023-04-26T23:12:00.081Z,9.80
2023-04-26T23:14:29.594Z,10.00
2023-04-26T23:17:00.296Z,11.38
2023-04-26T23:19:28.161Z,13.13
2023-04-26T23:21:55.642Z,9.85
2023-04-26T23:24:23.036Z,10.88
2023-04-26T23:26:50.287Z,10.45
2023-04-26T23:29:17.538Z,10.68
2023-04-26T23:31:45.021Z,10.90
2023-04-26T23:34:12.551Z,11.18
2023-04-26T23:36:39.910Z,10.93
2023-04-26T23:39:07.251Z,10.02
2023-04-26T23:41:34.584Z,10.95
2023-04-26T23:44:01.995Z,10.15
2023-04-26T23:46:29.638Z,10.68
2023-04-26T23:48:56.949Z,10.90
2023-04-26T23:51:24.292Z,10.00
2023-04-26T23:53:51.549Z,11.32
2023-04-26T23:56:19.185Z,10.85
2023-04-26T23:58:46.564Z,10.75
